Latest Weather Observations for Thredbo Top Station

IDN60801

Issued at 8:02 pm EST Tuesday 1 September 2015 (issued every 30 minutes, with the page automatically refreshed every 10 minutes)

About weather observations | Map of weather stations | Latest weather observations for NSW | Other Formats
Station Details ID: 071032 Name: THREDBO AWS Lat: -36.49 Lon: 148.29 Height: 1957.0 m
Data from the previous 72 hours. | See also: Recent months at Thredbo Top Station
Date/Time
EST
Temp
°C
App
Temp
°C
Dew
Point
Rel
Hum
%
Delta-T
°C
Wind Press
QNH
hPa
Press
MSL
hPa
Rain
since 9 am
mm
Dir
 
Spd
km/h
Gust
km/h
Spd
kts
Gust
kts
01/08:00pm -0.8 -7.1 -10.2 49 2.8 WSW 17 17 9 9 - - 0.0
01/07:30pm 0.2 -5.6 -9.2 49 3.0 W 15 17 8 9 - - 0.0
01/07:00pm -0.3 -6.1 -9.2 51 2.8 W 15 17 8 9 - - 0.0
01/06:30pm 0.1 -4.9 -8.1 54 2.7 WSW 11 17 6 9 - - 0.0
01/06:00pm -0.6 -6.3 -4.1 77 1.2 W 17 20 9 11 - - 0.0
01/05:30pm -1.7 -7.7 -3.3 89 0.5 WNW 19 20 10 11 - - 0.0
01/05:00pm -0.7 -6.3 -3.1 84 0.8 WNW 17 19 9 10 - - 0.0
01/04:30pm 0.9 -5.0 -5.5 62 2.3 W 17 24 9 13 - - 0.0
01/04:00pm 0.4 -5.5 -2.0 84 0.9 W 19 26 10 14 - - 0.0
01/03:30pm 1.5 -5.1 -6.8 54 2.9 W 20 35 11 19 - - 0.0
01/03:00pm 1.2 -5.1 -4.4 66 2.1 W 20 30 11 16 - - 0.0
01/02:30pm 0.8 -5.4 -2.8 77 1.4 WNW 20 26 11 14 - - 0.0
01/02:00pm 0.6 -5.5 -3.7 73 1.6 WNW 19 28 10 15 - - 0.0
01/01:30pm 0.9 -5.5 -5.3 63 2.2 W 20 30 11 16 - - 0.0
01/01:00pm 0.4 -6.4 -5.4 65 2.0 NW 22 32 12 17 - - 0.0
01/12:30pm 0.2 -6.9 -4.2 72 1.6 NW 24 30 13 16 - - 0.0
01/12:00pm 0.8 -6.6 -12.2 37 3.8 W 22 32 12 17 - - 0.0
01/11:30am 0.6 -6.3 -11.1 41 3.5 WNW 20 33 11 18 - - 0.0
01/11:00am 0.2 -6.4 -15.7 29 4.2 W 17 26 9 14 - - 0.0
01/10:30am 0.0 -7.4 -19.1 22 4.6 WSW 20 30 11 16 - - 0.0
01/10:00am -0.4 -8.2 -20.6 20 4.6 WSW 22 28 12 15 - - 0.0
01/09:30am -0.7 -8.1 -20.8 20 4.5 WSW 20 28 11 15 - - 0.0
01/09:00am -1.2 -10.1 -20.7 21 4.4 WSW 28 33 15 18 - - 0.2
01/08:30am -1.6 -10.1 -20.5 22 4.2 WSW 26 33 14 18 - - 0.2
01/08:00am -2.1 -11.0 -20.4 23 4.0 WSW 28 33 15 18 - - 0.2
01/07:30am -1.9 -10.5 -21.3 21 4.2 WSW 26 32 14 17 - - 0.2
01/07:00am -2.0 -10.5 -19.8 24 4.0 WSW 26 35 14 19 1014.0 1018.5 0.2
01/06:30am -2.6 -11.1 -19.0 27 3.7 WSW 26 33 14 18 1013.9 1018.4 0.2
01/06:00am -2.9 -10.1 -15.5 37 3.1 W 20 26 11 14 1013.6 1018.1 0.2
01/05:30am -2.9 -10.3 -13.1 45 2.6 W 22 32 12 17 1013.5 1018.0 0.2
01/05:00am -3.7 -12.7 -7.8 73 1.1 WNW 32 39 17 21 1013.3 1017.8 0.2
01/04:30am -3.4 -12.4 -8.4 68 1.4 WNW 32 39 17 21 1013.3 1017.8 0.2
01/04:00am -3.8 -12.6 -6.4 82 0.7 WNW 32 41 17 22 1013.4 1017.9 0.2
01/03:30am -3.3 -11.9 -7.8 71 1.3 WNW 30 37 16 20 1013.3 1017.8 0.2
01/03:00am -3.6 -12.6 -8.8 67 1.4 WNW 32 35 17 19 1013.5 1018.0 0.2
01/02:30am -2.1 -11.2 -16.2 33 3.5 W 30 37 16 20 1013.6 1018.1 0.2
01/02:00am -2.4 -11.6 -11.1 51 2.4 WNW 32 39 17 21 1013.9 1018.4 0.2
01/01:30am -3.3 -12.0 -9.3 63 1.7 WNW 30 35 16 19 1014.2 1018.7 0.2
01/01:00am -3.6 -12.3 -9.0 66 1.5 WNW 30 35 16 19 1014.4 1019.0 0.2
01/12:30am -3.6 -11.5 -8.6 68 1.4 WNW 26 32 14 17 1014.6 1019.1 0.2
01/12:00am -4.1 -12.1 -5.5 90 0.3 WNW 28 39 15 21 1014.8 1019.3 0.2
 
Date/Time
EST
Temp
°C
App
Temp
°C
Dew
Point
Rel
Hum
%
Delta-T
°C
Wind Press
QNH
hPa
Press
MSL
hPa
Rain
since 9 am
mm
Dir
 
Spd
km/h
Gust
km/h
Spd
kts
Gust
kts
31/11:30pm -3.6 -11.5 -5.1 89 0.3 WNW 28 37 15 20 1014.8 1019.3 0.2
31/11:00pm -3.5 -11.0 -4.6 92 0.2 WNW 26 33 14 18 1015.0 1019.6 0.2
31/10:30pm -3.4 -10.9 -4.9 89 0.4 W 26 33 14 18 1015.1 1019.7 0.2
31/10:00pm -2.6 -9.1 -6.1 77 1.0 WSW 20 30 11 16 1015.4 1019.9 0.2
31/09:30pm -2.6 -10.0 -4.0 90 0.4 W 26 35 14 19 1015.5 1020.0 0.2
31/09:00pm -2.3 -10.8 -3.7 90 0.4 W 32 43 17 23 1015.5 1020.0 0.2
31/08:30pm -2.2 -10.7 -3.2 93 0.3 W 32 41 17 22 1015.4 1019.9 0.2
31/08:00pm -1.9 -9.9 -2.6 95 0.2 W 30 39 16 21 1015.1 1019.7 0.2
31/07:30pm -1.9 -9.1 -2.2 98 0.0 W 26 37 14 20 1014.9 1019.4 0.2
31/07:00pm -1.5 -7.9 -1.9 97 0.1 W 22 35 12 19 1014.9 1019.4 0.2
31/06:30pm -1.3 -8.1 -1.6 98 0.0 W 24 32 13 17 - - 0.2
31/06:00pm -1.6 -8.0 -1.9 98 0.0 W 22 28 12 15 - - 0.2
31/05:30pm -1.3 -7.4 -2.6 91 0.4 W 20 26 11 14 - - 0.2
31/05:00pm -1.0 -6.6 -2.7 88 0.6 W 17 24 9 13 - - 0.2
31/04:30pm -0.8 -6.3 -2.1 91 0.4 WNW 17 24 9 13 - - 0.2
31/04:00pm -0.4 -6.3 -2.0 89 0.6 W 19 24 10 13 - - 0.2
31/03:30pm -0.1 -5.6 -2.0 87 0.7 WNW 17 22 9 12 - - 0.2
31/03:00pm 0.1 -6.4 -2.8 81 1.1 W 22 28 12 15 - - 0.2
31/02:30pm 0.0 -7.0 -3.5 77 1.3 W 24 35 13 19 - - 0.2
31/02:00pm 0.2 -5.5 -3.5 76 1.4 W 17 24 9 13 - - 0.2
31/01:30pm 0.0 -6.3 -4.1 74 1.5 WNW 20 28 11 15 - - 0.2
31/01:00pm 0.2 -6.3 -5.6 65 2.0 WNW 20 24 11 13 - - 0.2
31/12:30pm 0.0 -5.4 -8.2 54 2.6 W 13 17 7 9 - - 0.0
31/12:00pm 0.1 -4.8 -6.7 60 2.3 W 11 15 6 8 - - 0.0
31/11:30am -0.7 -6.1 -8.1 57 2.3 W 13 17 7 9 - - 0.0
31/11:00am -0.9 -6.0 -9.7 51 2.6 W 11 15 6 8 - - 0.0
31/10:30am -1.9 -7.0 -9.7 55 2.3 WSW 11 13 6 7 - - 0.0
31/10:00am -2.1 -6.8 -9.5 57 2.1 WSW 9 11 5 6 - - 0.0
31/09:30am -2.5 -7.3 -10.5 54 2.2 SW 9 13 5 7 - - 0.0
31/09:00am -2.9 -7.7 -10.9 54 2.2 SW 9 13 5 7 - - 1.2
31/08:30am -3.2 -8.4 -11.2 54 2.1 SW 11 17 6 9 - - 1.2
31/08:00am -3.7 -10.5 -11.4 55 2.0 WSW 19 24 10 13 - - 1.2
31/07:30am -4.0 -10.8 -12.4 52 2.1 WSW 19 22 10 12 - - 1.2
31/07:00am -4.6 -11.6 -12.2 55 1.9 W 20 22 11 12 - - 1.2
31/06:30am -4.4 -11.4 -11.8 56 1.9 W 20 22 11 12 - - 1.2
31/06:00am -4.5 -11.3 -11.9 56 1.8 W 19 22 10 12 - - 1.2
31/05:30am -5.8 -11.1 -11.5 64 1.3 SW 11 15 6 8 - - 1.2
31/05:00am -5.1 -10.7 -10.4 66 1.3 WSW 13 19 7 10 - - 1.2
31/04:30am -4.3 -11.1 -11.7 56 1.9 W 19 20 10 11 - - 1.2
31/04:00am -4.5 -10.9 -11.9 56 1.8 W 17 19 9 10 - - 1.2
31/03:30am -4.8 -10.8 -11.3 60 1.6 W 15 19 8 10 - - 1.2
31/03:00am -4.7 -10.2 -9.7 68 1.3 W 13 15 7 8 - - 1.2
31/02:30am -5.3 -9.8 -12.0 59 1.6 W 7 13 4 7 - - 1.2
31/02:00am -6.0 -10.3 -11.1 67 1.2 WSW 6 9 3 5 - - 1.2
31/01:30am -5.9 -11.1 -10.1 72 1.0 WSW 11 13 6 7 - - 1.2
31/01:00am -5.9 -9.1 -11.6 64 1.3 CALM 0 0 0 0 - - 1.2
31/12:30am -5.2 -9.8 -13.3 53 1.9 NNW 7 11 4 6 - - 1.2
31/12:00am -5.2 -9.5 -11.9 59 1.6 WNW 6 11 3 6 - - 1.2
 
Date/Time
EST
Temp
°C
App
Temp
°C
Dew
Point
Rel
Hum
%
Delta-T
°C
Wind Press
QNH
hPa
Press
MSL
hPa
Rain
since 9 am
mm
Dir
 
Spd
km/h
Gust
km/h
Spd
kts
Gust
kts
30/11:30pm -5.2 -9.9 -9.1 74 0.9 SW 9 13 5 7 - - 1.2
30/11:00pm -5.3 -10.1 -10.3 68 1.2 SW 9 15 5 8 - - 1.2
30/10:30pm -5.1 -8.6 -10.4 66 1.3 SW 2 7 1 4 - - 1.2
30/10:00pm -4.9 -7.9 -9.5 70 1.1 CALM 0 6 0 3 - - 1.2
30/09:30pm -4.9 -9.0 -9.3 71 1.1 WSW 6 9 3 5 - - 1.2
30/09:00pm -4.8 -8.5 -8.0 78 0.8 SSW 4 13 2 7 - - 1.2
30/08:30pm -4.8 -9.4 -8.2 77 0.8 SW 9 13 5 7 - - 1.2
30/08:00pm -4.7 -9.4 -8.8 73 1.0 SSW 9 17 5 9 - - 1.2
30/07:30pm -4.0 -9.0 -7.8 75 1.0 SSW 11 19 6 10 - - 1.2
30/07:00pm -3.7 -6.4 -6.2 83 0.7 CALM 0 0 0 0 - - 1.2
30/06:30pm -3.4 -7.2 -3.8 97 0.0 SSW 7 9 4 5 - - 1.2
30/06:00pm -2.5 -6.0 -2.6 99 -0.1 SSW 6 9 3 5 - - 1.2
30/05:30pm -1.9 -6.2 -2.0 99 -0.1 SSW 11 17 6 9 - - 1.2
30/05:00pm -1.5 -5.4 -1.6 99 0.0 SSW 9 13 5 7 - - 1.2
30/04:30pm -1.2 -5.5 -1.3 99 0.0 SW 11 17 6 9 - - 1.2
30/04:00pm -0.9 -5.9 -1.2 98 0.1 SSW 15 19 8 10 - - 1.2
30/03:30pm -0.6 -5.2 -1.3 95 0.2 SW 13 19 7 10 - - 1.2
30/03:00pm -0.3 -4.9 -1.3 93 0.4 SW 13 19 7 10 - - 1.2
30/02:30pm 0.1 -4.6 -1.8 87 0.7 WSW 13 15 7 8 - - 1.2
30/02:00pm -0.4 -5.6 -2.4 86 0.7 WSW 15 20 8 11 - - 1.2
30/01:30pm 0.1 -3.5 -2.1 85 0.8 WSW 7 11 4 6 - - 1.2
30/01:00pm 0.2 -4.1 -1.9 86 0.8 SSW 11 15 6 8 - - 1.2
30/12:30pm -0.2 -4.5 -1.8 89 0.6 SSW 11 17 6 9 - - 1.2
30/12:00pm 0.0 -4.3 -1.3 91 0.5 S 11 15 6 8 - - 1.2
30/11:30am -0.5 -5.1 -1.2 95 0.2 S 13 15 7 8 - - 1.2
30/11:00am -0.9 -4.8 -1.3 97 0.1 SSW 9 13 5 7 - - 1.2
30/10:30am -2.1 -7.2 -2.2 99 -0.1 S 15 20 8 11 - - 0.8
30/10:00am -3.1 -8.4 -3.2 99 -0.1 S 15 22 8 12 - - 0.8
30/09:30am -2.1 -7.6 -2.2 99 -0.1 SSE 17 20 9 11 - - 0.8
30/09:00am -2.3 -6.3 -2.4 99 -0.1 SSW 9 15 5 8 - - 1.4
30/08:30am -2.7 -7.5 -2.8 99 -0.1 S 13 17 7 9 - - 1.4
30/08:00am -3.3 -8.2 -3.4 99 -0.1 S 13 19 7 10 - - 1.4
30/07:30am -3.3 -8.2 -3.4 99 -0.1 SSW 13 19 7 10 - - 1.4
30/07:00am -3.5 -9.2 -3.6 99 -0.1 SSW 17 24 9 13 - - 1.4
30/06:30am -3.6 -8.2 -3.7 99 -0.1 SSW 11 19 6 10 - - 1.4
30/06:00am -3.5 -8.4 -3.6 99 -0.1 SSW 13 19 7 10 - - 1.4
30/05:30am -3.4 -7.6 -3.5 99 -0.1 SSW 9 15 5 8 - - 1.4
30/05:00am -3.3 -9.0 -3.4 99 -0.1 SSW 17 24 9 13 - - 1.4
30/04:30am -3.4 -8.3 -3.5 99 -0.1 SSW 13 22 7 12 - - 1.4
30/04:00am -3.5 -8.8 -3.6 99 -0.1 SSW 15 19 8 10 - - 1.4
30/03:30am -3.6 -9.9 -3.7 99 -0.1 SSW 20 28 11 15 - - 1.4
30/03:00am -3.5 -9.2 -3.6 99 -0.1 SSW 17 26 9 14 - - 1.4
30/02:30am -3.5 -8.8 -3.6 99 -0.1 SSW 15 22 8 12 - - 1.4
30/02:00am -3.6 -8.9 -3.7 99 -0.1 SSW 15 22 8 12 - - 1.4
30/01:30am -3.6 -9.9 -3.7 99 -0.1 SSW 20 28 11 15 - - 1.4
30/01:00am -3.6 -9.9 -3.7 99 -0.1 SSW 20 30 11 16 - - 1.4
30/12:30am -3.5 -9.2 -3.6 99 -0.1 SW 17 22 9 12 - - 1.4
30/12:00am -3.6 -11.0 -3.7 99 -0.1 SSW 26 43 14 23 - - 1.4
 
Date/Time
EST
Temp
°C
App
Temp
°C
Dew
Point
Rel
Hum
%
Delta-T
°C
Wind Press
QNH
hPa
Press
MSL
hPa
Rain
since 9 am
mm
Dir
 
Spd
km/h
Gust
km/h
Spd
kts
Gust
kts
29/11:30pm -3.6 -11.8 -3.7 99 -0.1 SW 30 39 16 21 - - 1.4
29/11:00pm -3.4 -11.5 -3.5 99 -0.1 SW 30 41 16 22 - - 1.4
29/10:30pm -3.4 -11.9 -3.5 99 -0.1 SW 32 39 17 21 - - 1.4
29/10:00pm -3.2 -10.9 -3.3 99 -0.1 SW 28 43 15 23 - - 1.4
29/09:30pm -3.1 -10.1 -3.2 99 -0.1 SW 24 33 13 18 - - 1.4
29/09:00pm -3.0 -10.7 -3.1 99 -0.1 SW 28 39 15 21 - - 1.4
29/08:30pm -3.1 -11.6 -3.2 99 -0.1 WSW 32 43 17 23 - - 1.4

Other Formats:

Comma delimited format used in spreadsheet applications
http://www.bom.gov.au/fwo/IDN60801/IDN60801.95909.axf

JavaScript Object Notation format (JSON) in row-major order
http://www.bom.gov.au/fwo/IDN60801/IDN60801.95909.json